createdAt,value
2022-10-23T00:01:20.955Z,17.34
2022-10-23T00:03:47.974Z,17.38
2022-10-23T00:06:15.020Z,17.41
2022-10-23T00:08:41.537Z,17.44
2022-10-23T00:11:14.844Z,17.41
2022-10-23T00:13:41.484Z,17.41
2022-10-23T00:16:08.816Z,17.40
2022-10-23T00:18:36.399Z,17.43
2022-10-23T00:21:02.967Z,17.46
2022-10-23T00:23:29.502Z,17.53
2022-10-23T00:25:55.974Z,17.50
2022-10-23T00:28:22.381Z,17.46
2022-10-23T00:30:48.880Z,17.45
2022-10-23T00:33:15.306Z,17.48
2022-10-23T00:35:42.770Z,17.51
2022-10-23T00:38:10.399Z,17.53
2022-10-23T00:40:38.469Z,17.51
2022-10-23T00:43:07.024Z,17.52
2022-10-23T00:45:34.006Z,17.47
2022-10-23T00:48:01.911Z,17.52
2022-10-23T00:50:31.758Z,17.48
2022-10-23T00:53:02.228Z,17.37
2022-10-23T00:55:30.346Z,17.31
2022-10-23T00:57:56.824Z,17.24
2022-10-23T01:00:40.570Z,17.20
2022-10-23T01:03:07.393Z,17.13
2022-10-23T01:05:42.966Z,17.16
2022-10-23T01:08:22.221Z,17.13
2022-10-23T01:10:56.900Z,17.08
2022-10-23T01:13:53.669Z,17.02
2022-10-23T01:16:54.186Z,17.04
2022-10-23T01:19:37.267Z,16.97
2022-10-23T01:22:13.360Z,16.99
2022-10-23T01:24:58.861Z,16.86
2022-10-23T01:27:41.762Z,16.87
2022-10-23T01:30:11.395Z,16.81
2022-10-23T01:32:48.980Z,16.87
2022-10-23T01:35:34.235Z,16.76
2022-10-23T01:38:11.810Z,16.80
2022-10-23T01:40:48.261Z,16.80
2022-10-23T01:43:20.128Z,16.82
2022-10-23T01:45:51.165Z,16.95
2022-10-23T01:48:22.061Z,16.98
2022-10-23T01:50:50.061Z,16.87
2022-10-23T01:53:18.578Z,16.89
2022-10-23T01:55:47.362Z,16.85
2022-10-23T01:58:15.709Z,16.79
2022-10-23T02:00:45.525Z,16.80
2022-10-23T02:03:15.782Z,16.84
2022-10-23T02:05:43.620Z,16.98
2022-10-23T02:08:10.426Z,16.98
2022-10-23T02:11:11.199Z,16.92
2022-10-23T02:13:59.854Z,16.86
2022-10-23T02:16:37.567Z,16.77
2022-10-23T02:19:09.800Z,16.75
2022-10-23T02:21:53.992Z,16.68
2022-10-23T02:24:29.240Z,16.66
2022-10-23T02:27:00.762Z,16.69
2022-10-23T02:29:44.991Z,16.70
2022-10-23T02:32:13.078Z,16.81
2022-10-23T02:34:39.529Z,16.77
2022-10-23T02:37:06.025Z,16.83
2022-10-23T02:39:33.566Z,16.85
2022-10-23T02:41:59.961Z,16.96
2022-10-23T02:45:00.346Z,17.07
2022-10-23T02:47:59.260Z,17.13
2022-10-23T02:50:34.713Z,17.08
2022-10-23T02:53:01.141Z,17.12
2022-10-23T02:55:39.566Z,17.15
2022-10-23T02:58:17.830Z,17.13
2022-10-23T03:00:51.527Z,17.00
2022-10-23T03:03:27.795Z,16.87
2022-10-23T03:05:56.490Z,16.72
2022-10-23T03:08:23.033Z,16.68
2022-10-23T03:10:49.515Z,16.69
2022-10-23T03:13:16.002Z,16.77
2022-10-23T03:15:42.592Z,16.73
2022-10-23T03:18:09.169Z,16.80
2022-10-23T03:20:35.639Z,16.82
2022-10-23T03:23:02.096Z,16.74
2022-10-23T03:25:28.821Z,16.88
2022-10-23T03:27:55.298Z,16.84
2022-10-23T03:30:21.727Z,16.85
2022-10-23T03:32:48.149Z,16.92
2022-10-23T03:35:14.607Z,16.95
2022-10-23T03:37:41.256Z,16.90
2022-10-23T03:40:08.637Z,16.79
2022-10-23T03:42:35.126Z,16.76
2022-10-23T03:45:01.833Z,16.76
2022-10-23T03:47:30.377Z,16.72
2022-10-23T03:49:56.893Z,16.75
2022-10-23T03:54:50.815Z,16.66
2022-10-23T03:57:17.223Z,16.76
2022-10-23T03:59:43.648Z,16.83
2022-10-23T04:02:10.620Z,16.91
2022-10-23T04:04:37.139Z,16.97
2022-10-23T04:07:03.644Z,17.00
2022-10-23T04:09:30.141Z,16.96
2022-10-23T04:11:56.883Z,17.00
2022-10-23T04:14:23.426Z,16.99
2022-10-23T04:16:49.865Z,16.94
2022-10-23T04:19:17.194Z,17.04
2022-10-23T04:21:44.093Z,17.13
2022-10-23T04:24:10.957Z,17.19
2022-10-23T04:26:37.397Z,17.24
2022-10-23T04:29:03.915Z,17.28
2022-10-23T04:31:30.345Z,17.30
2022-10-23T04:33:56.874Z,17.33
2022-10-23T04:36:23.325Z,17.35
2022-10-23T04:38:49.750Z,17.36
2022-10-23T04:41:16.204Z,17.36
2022-10-23T04:43:42.616Z,17.40
2022-10-23T04:46:09.058Z,17.29
2022-10-23T04:48:35.532Z,17.28
2022-10-23T04:51:05.544Z,17.26
2022-10-23T04:53:32.746Z,17.29
2022-10-23T04:56:00.127Z,17.31
2022-10-23T04:58:28.589Z,17.35
2022-10-23T05:00:55.210Z,17.32
2022-10-23T05:03:22.656Z,17.30
2022-10-23T05:05:49.137Z,17.25
2022-10-23T05:08:18.015Z,17.19
2022-10-23T05:10:44.768Z,17.19
2022-10-23T05:13:11.258Z,17.29
2022-10-23T05:15:37.788Z,17.11
2022-10-23T05:18:24.568Z,17.07
2022-10-23T05:20:56.659Z,17.10
2022-10-23T05:23:24.907Z,17.06
2022-10-23T05:25:51.387Z,17.06
2022-10-23T05:28:17.846Z,17.06
2022-10-23T05:30:44.839Z,17.20
2022-10-23T05:33:11.733Z,17.13
2022-10-23T05:35:40.472Z,17.08
2022-10-23T05:38:07.455Z,16.96
2022-10-23T05:40:34.078Z,17.00
2022-10-23T05:43:00.790Z,17.01
2022-10-23T05:45:28.436Z,16.96
2022-10-23T05:47:55.002Z,16.97
2022-10-23T05:50:25.735Z,16.94
2022-10-23T05:52:52.230Z,17.00
2022-10-23T05:55:18.650Z,16.98
2022-10-23T05:57:45.450Z,16.93
2022-10-23T06:00:12.960Z,17.00
2022-10-23T06:02:39.541Z,16.99
2022-10-23T06:05:06.308Z,16.93
2022-10-23T06:07:35.146Z,16.93
2022-10-23T06:10:03.769Z,16.89
2022-10-23T06:12:31.360Z,16.87
2022-10-23T06:14:57.836Z,16.87
2022-10-23T06:17:24.276Z,16.83
2022-10-23T06:19:51.118Z,16.88
2022-10-23T06:22:17.591Z,16.86
2022-10-23T06:24:44.017Z,16.78
2022-10-23T06:27:10.482Z,16.91
2022-10-23T06:29:36.871Z,16.98
2022-10-23T06:32:03.387Z,16.98
2022-10-23T06:34:29.815Z,16.95
2022-10-23T06:36:56.249Z,16.98
2022-10-23T06:39:24.382Z,17.04
2022-10-23T06:41:52.647Z,17.00
2022-10-23T06:44:19.078Z,16.92
2022-10-23T06:46:48.499Z,17.20
2022-10-23T06:49:16.208Z,17.30
2022-10-23T06:51:43.163Z,17.33
2022-10-23T06:54:13.871Z,17.34
2022-10-23T06:56:40.343Z,17.38
2022-10-23T06:59:07.742Z,17.36
2022-10-23T07:01:35.302Z,17.36
2022-10-23T07:04:01.905Z,17.34
2022-10-23T07:06:28.335Z,17.33
2022-10-23T07:08:54.794Z,17.34
2022-10-23T07:11:21.256Z,17.34
2022-10-23T07:13:47.818Z,17.36
2022-10-23T07:16:22.060Z,17.37
2022-10-23T07:18:50.314Z,17.40
2022-10-23T07:21:17.933Z,17.37
2022-10-23T07:23:44.332Z,17.40
2022-10-23T07:26:16.913Z,17.41
2022-10-23T07:28:45.234Z,17.42
2022-10-23T07:31:12.341Z,17.41
2022-10-23T07:33:39.411Z,17.37
2022-10-23T07:36:09.655Z,17.39
2022-10-23T07:38:36.146Z,17.41
2022-10-23T07:41:02.760Z,17.39
2022-10-23T07:43:29.445Z,17.41
2022-10-23T07:45:56.318Z,17.44
2022-10-23T07:48:23.913Z,17.44
2022-10-23T07:50:51.148Z,17.46
2022-10-23T07:53:20.199Z,17.48
2022-10-23T07:55:55.516Z,17.48
2022-10-23T07:58:23.464Z,17.49
2022-10-23T08:00:55.801Z,17.50
2022-10-23T08:03:22.311Z,17.48
2022-10-23T08:05:48.727Z,17.51
2022-10-23T08:08:15.202Z,17.51
2022-10-23T08:10:41.808Z,17.55
2022-10-23T08:13:12.097Z,17.63
2022-10-23T08:15:38.700Z,17.65
2022-10-23T08:18:05.223Z,17.62
2022-10-23T08:20:31.691Z,17.57
2022-10-23T08:22:58.086Z,17.56
2022-10-23T08:25:25.186Z,17.59
2022-10-23T08:27:52.543Z,17.59
2022-10-23T08:30:19.726Z,17.68
2022-10-23T08:32:46.134Z,17.71
2022-10-23T08:35:12.618Z,17.68
2022-10-23T08:37:39.003Z,17.68
2022-10-23T08:40:05.908Z,17.68
2022-10-23T08:42:37.050Z,17.68
2022-10-23T08:45:13.004Z,17.65
2022-10-23T08:47:43.936Z,17.67
2022-10-23T08:50:19.561Z,17.71
2022-10-23T08:52:57.194Z,17.71
2022-10-23T08:55:27.370Z,17.73
2022-10-23T08:58:06.056Z,17.72
2022-10-23T09:00:33.411Z,17.73
2022-10-23T09:03:03.685Z,17.74
2022-10-23T09:06:03.527Z,17.76
2022-10-23T09:08:43.522Z,17.78
2022-10-23T09:11:31.809Z,17.78
2022-10-23T09:14:33.009Z,17.78
2022-10-23T09:19:46.053Z,17.77
2022-10-23T09:22:13.258Z,17.79
2022-10-23T09:24:43.447Z,17.79
2022-10-23T09:27:14.965Z,17.79
2022-10-23T09:29:48.902Z,17.78
2022-10-23T09:32:15.370Z,17.78
2022-10-23T09:34:52.213Z,17.77
2022-10-23T09:37:33.336Z,17.76
2022-10-23T09:40:29.165Z,17.74
2022-10-23T09:42:58.518Z,17.76
2022-10-23T09:45:31.067Z,17.75
2022-10-23T09:48:12.169Z,17.76
2022-10-23T09:50:48.086Z,17.75
2022-10-23T09:53:23.202Z,17.78
2022-10-23T09:55:54.847Z,17.81
2022-10-23T09:58:29.723Z,17.81
2022-10-23T10:00:57.068Z,17.80
2022-10-23T10:03:24.597Z,17.80
2022-10-23T10:06:31.069Z,17.84
2022-10-23T10:09:00.473Z,17.88
2022-10-23T10:11:27.823Z,17.87
2022-10-23T10:14:15.635Z,17.86
2022-10-23T10:16:54.352Z,17.93
2022-10-23T10:19:39.169Z,17.97
2022-10-23T10:22:34.292Z,17.99
2022-10-23T10:25:19.767Z,18.02
2022-10-23T10:28:13.234Z,18.05
2022-10-23T10:30:48.901Z,18.07
2022-10-23T10:33:24.884Z,18.08
2022-10-23T10:36:29.452Z,18.09
2022-10-23T10:39:04.023Z,18.16
2022-10-23T10:41:55.597Z,18.20
2022-10-23T10:44:37.916Z,18.21
2022-10-23T10:47:17.156Z,18.18
2022-10-23T10:49:58.948Z,18.17
2022-10-23T10:52:48.300Z,18.19
2022-10-23T10:55:30.018Z,18.22
2022-10-23T10:58:01.266Z,18.26
2022-10-23T11:00:29.848Z,18.25
2022-10-23T11:03:07.139Z,18.26
2022-10-23T11:05:38.820Z,18.28
2022-10-23T11:08:44.443Z,18.29
2022-10-23T11:11:39.385Z,18.31
2022-10-23T11:14:13.843Z,18.31
2022-10-23T11:16:42.871Z,18.31
2022-10-23T11:19:24.436Z,18.32
2022-10-23T11:21:56.630Z,18.33
2022-10-23T11:24:49.507Z,18.32
2022-10-23T11:27:37.586Z,18.35
2022-10-23T11:30:17.761Z,18.37
2022-10-23T11:33:05.662Z,18.38
2022-10-23T11:35:54.035Z,18.40
2022-10-23T11:38:30.657Z,18.43
2022-10-23T11:41:03.947Z,18.45
2022-10-23T11:43:34.162Z,18.46
2022-10-23T11:46:30.870Z,18.49
2022-10-23T11:48:57.676Z,18.51
2022-10-23T11:51:33.422Z,18.51
2022-10-23T11:54:12.176Z,18.49
2022-10-23T11:56:52.746Z,18.50
2022-10-23T11:59:28.391Z,18.50
2022-10-23T12:01:57.413Z,18.50
2022-10-23T12:04:28.060Z,18.48
2022-10-23T12:07:00.570Z,18.48
2022-10-23T12:09:33.110Z,18.52
2022-10-23T12:12:08.657Z,18.52
2022-10-23T12:14:45.792Z,18.54
2022-10-23T12:17:35.848Z,18.53
2022-10-23T12:20:02.250Z,18.53
2022-10-23T12:22:56.546Z,18.55
2022-10-23T12:26:00.655Z,18.54
2022-10-23T12:28:42.501Z,18.52
2022-10-23T12:31:30.678Z,18.53
2022-10-23T12:34:21.898Z,18.53
2022-10-23T12:37:37.775Z,18.53
2022-10-23T12:40:09.169Z,18.56
2022-10-23T12:42:36.587Z,18.53
2022-10-23T12:45:18.796Z,18.55
2022-10-23T12:47:46.933Z,18.56
2022-10-23T12:50:30.460Z,18.55
2022-10-23T12:52:58.239Z,18.59
2022-10-23T12:55:27.509Z,18.58
2022-10-23T12:57:55.447Z,18.58
2022-10-23T13:00:24.106Z,18.57
2022-10-23T13:03:04.338Z,18.59
2022-10-23T13:05:32.135Z,18.58
2022-10-23T13:08:00.226Z,18.59
2022-10-23T13:10:28.098Z,18.57
2022-10-23T13:13:02.790Z,18.59
2022-10-23T13:15:44.576Z,18.58
2022-10-23T13:18:14.262Z,18.58
2022-10-23T13:20:52.952Z,18.58
2022-10-23T13:23:34.318Z,18.58
2022-10-23T13:26:06.863Z,18.57
2022-10-23T13:28:35.164Z,18.59
2022-10-23T13:31:22.558Z,18.59
2022-10-23T13:34:18.984Z,18.60
2022-10-23T13:36:54.744Z,18.59
2022-10-23T13:39:32.612Z,18.59
2022-10-23T13:42:14.230Z,18.62
2022-10-23T13:44:41.495Z,18.61
2022-10-23T13:47:17.702Z,18.60
2022-10-23T13:49:44.182Z,18.59
2022-10-23T13:52:13.514Z,18.61
2022-10-23T13:54:40.127Z,18.62
2022-10-23T13:57:12.779Z,18.59
2022-10-23T13:59:39.281Z,18.62
2022-10-23T14:02:18.464Z,18.60
2022-10-23T14:04:46.358Z,18.64
2022-10-23T14:07:12.959Z,18.62
2022-10-23T14:09:39.362Z,18.61
2022-10-23T14:12:05.890Z,18.62
2022-10-23T14:14:32.391Z,18.63
2022-10-23T14:16:58.805Z,18.67
2022-10-23T14:19:25.299Z,18.64
2022-10-23T14:21:51.746Z,18.64
2022-10-23T14:24:18.150Z,18.64
2022-10-23T14:26:44.567Z,18.63
2022-10-23T14:29:17.256Z,18.63
2022-10-23T14:31:47.920Z,18.64
2022-10-23T14:34:14.452Z,18.65
2022-10-23T14:36:49.897Z,18.64
2022-10-23T14:39:17.837Z,18.64
2022-10-23T14:41:44.382Z,18.63
2022-10-23T14:44:10.955Z,18.64
2022-10-23T14:46:38.439Z,18.65
2022-10-23T14:49:05.220Z,18.64
2022-10-23T14:51:31.634Z,18.63
2022-10-23T14:54:01.584Z,18.63
2022-10-23T14:56:29.825Z,18.63
2022-10-23T14:59:02.634Z,18.62
2022-10-23T15:01:35.936Z,18.60
2022-10-23T15:04:02.532Z,18.61
2022-10-23T15:06:28.995Z,18.61
2022-10-23T15:08:55.934Z,18.60
2022-10-23T15:11:24.040Z,18.60
2022-10-23T15:13:51.101Z,18.59
2022-10-23T15:16:17.957Z,18.59
2022-10-23T15:18:44.405Z,18.59
2022-10-23T15:21:11.054Z,18.58
2022-10-23T15:23:40.110Z,18.60
2022-10-23T15:26:09.364Z,18.60
2022-10-23T15:28:35.851Z,18.58
2022-10-23T15:31:02.822Z,18.57
2022-10-23T15:33:29.398Z,18.58
2022-10-23T15:35:55.974Z,18.58
2022-10-23T15:38:23.535Z,18.58
2022-10-23T15:40:50.160Z,18.64
2022-10-23T15:43:17.677Z,18.64
2022-10-23T15:45:45.277Z,18.63
2022-10-23T15:48:11.756Z,18.65
2022-10-23T15:50:38.238Z,18.65
2022-10-23T15:53:04.751Z,18.64
2022-10-23T15:55:31.277Z,18.63
2022-10-23T15:58:01.925Z,18.61
2022-10-23T16:00:28.433Z,18.63
2022-10-23T16:02:54.878Z,18.63
2022-10-23T16:05:21.404Z,18.64
2022-10-23T16:07:47.800Z,18.63
2022-10-23T16:10:14.267Z,18.64
2022-10-23T16:12:40.837Z,18.63
2022-10-23T16:15:08.290Z,18.62
2022-10-23T16:17:34.711Z,18.64
2022-10-23T16:20:01.175Z,18.63
2022-10-23T16:22:27.848Z,18.61
2022-10-23T16:24:54.402Z,18.62
2022-10-23T16:27:20.828Z,18.62
2022-10-23T16:29:47.315Z,18.60
2022-10-23T16:32:13.765Z,18.61
2022-10-23T16:34:40.254Z,18.60
2022-10-23T16:37:06.842Z,18.60
2022-10-23T16:39:33.336Z,18.59
2022-10-23T16:41:59.740Z,18.62
2022-10-23T16:44:26.199Z,18.67
2022-10-23T16:46:52.615Z,18.68
2022-10-23T16:49:19.029Z,18.70
2022-10-23T16:51:45.630Z,18.73
2022-10-23T16:54:12.119Z,18.73
2022-10-23T16:56:38.579Z,18.74
2022-10-23T16:59:05.516Z,18.72
2022-10-23T17:01:33.292Z,18.75
2022-10-23T17:04:00.437Z,18.74
2022-10-23T17:06:29.793Z,18.72
2022-10-23T17:08:56.895Z,18.72
2022-10-23T17:11:26.025Z,18.72
2022-10-23T17:14:00.981Z,18.72
2022-10-23T17:16:36.751Z,18.73
2022-10-23T17:19:15.980Z,18.73
2022-10-23T17:21:51.249Z,18.73
2022-10-23T17:24:17.952Z,18.70
2022-10-23T17:26:44.463Z,18.68
2022-10-23T17:29:15.083Z,18.66
2022-10-23T17:31:47.789Z,18.62
2022-10-23T17:34:18.081Z,18.60
2022-10-23T17:36:47.871Z,18.58
2022-10-23T17:39:16.539Z,18.58
2022-10-23T17:41:44.169Z,18.53
2022-10-23T17:44:11.305Z,18.43
2022-10-23T17:46:38.164Z,18.35
2022-10-23T17:49:05.266Z,18.37
2022-10-23T17:51:34.120Z,18.31
2022-10-23T17:54:04.592Z,18.31
2022-10-23T17:56:32.726Z,18.24
2022-10-23T17:59:02.585Z,18.29
2022-10-23T18:01:30.943Z,18.30
2022-10-23T18:04:00.672Z,18.24
2022-10-23T18:06:29.936Z,18.30
2022-10-23T18:08:56.690Z,18.34
2022-10-23T18:11:29.381Z,18.29
2022-10-23T18:13:57.448Z,18.28
2022-10-23T18:16:24.017Z,18.29
2022-10-23T18:18:53.666Z,18.27
2022-10-23T18:21:22.140Z,18.24
2022-10-23T18:23:49.290Z,18.27
2022-10-23T18:26:24.496Z,18.26
2022-10-23T18:28:53.162Z,18.23
2022-10-23T18:31:20.660Z,18.19
2022-10-23T18:33:47.631Z,18.17
2022-10-23T18:36:22.778Z,18.18
2022-10-23T18:38:50.070Z,18.23
2022-10-23T18:41:17.920Z,18.19
2022-10-23T18:43:44.903Z,18.19
2022-10-23T18:46:14.751Z,18.20
2022-10-23T18:48:41.898Z,18.18
2022-10-23T18:51:15.746Z,18.19
2022-10-23T18:53:42.866Z,18.16
2022-10-23T18:56:09.288Z,18.20
2022-10-23T18:58:36.550Z,18.19
2022-10-23T19:01:03.909Z,18.19
2022-10-23T19:03:30.540Z,18.20
2022-10-23T19:05:57.015Z,18.25
2022-10-23T19:08:23.417Z,18.23
2022-10-23T19:10:51.278Z,18.23
2022-10-23T19:13:17.877Z,18.29
2022-10-23T19:15:44.620Z,18.24
2022-10-23T19:18:11.460Z,18.26
2022-10-23T19:20:38.039Z,18.19
2022-10-23T19:23:06.354Z,18.21
2022-10-23T19:25:35.318Z,18.21
2022-10-23T19:28:04.256Z,18.20
2022-10-23T19:30:31.341Z,18.20
2022-10-23T19:32:57.791Z,18.12
2022-10-23T19:35:24.270Z,18.12
2022-10-23T19:37:50.714Z,18.08
2022-10-23T19:40:17.428Z,18.09
2022-10-23T19:42:44.442Z,18.14
2022-10-23T19:45:14.189Z,18.04
2022-10-23T19:47:41.451Z,18.07
2022-10-23T19:50:09.324Z,18.05
2022-10-23T19:52:36.114Z,18.04
2022-10-23T19:55:04.259Z,18.04
2022-10-23T19:57:33.871Z,17.99
2022-10-23T20:00:01.576Z,18.01
2022-10-23T20:02:28.535Z,18.04
2022-10-23T20:04:55.274Z,18.01
2022-10-23T20:07:22.228Z,18.02
2022-10-23T20:09:48.778Z,18.05
2022-10-23T20:12:15.414Z,18.07
2022-10-23T20:14:41.946Z,18.06
2022-10-23T20:17:08.377Z,18.05
2022-10-23T20:19:35.039Z,18.08
2022-10-23T20:22:01.846Z,18.06
2022-10-23T20:24:28.288Z,18.06
2022-10-23T20:26:55.747Z,18.07
2022-10-23T20:29:23.027Z,18.01
2022-10-23T20:31:49.548Z,18.03
2022-10-23T20:34:16.212Z,17.99
2022-10-23T20:36:46.782Z,17.98
2022-10-23T20:39:35.587Z,17.97
2022-10-23T20:42:03.757Z,17.96
2022-10-23T20:44:30.781Z,17.96
2022-10-23T20:46:57.305Z,17.95
2022-10-23T20:49:23.816Z,17.95
2022-10-23T20:51:55.655Z,17.95
2022-10-23T20:54:27.574Z,17.90
2022-10-23T20:56:54.567Z,17.89
2022-10-23T20:59:21.043Z,17.87
2022-10-23T21:01:49.922Z,17.82
2022-10-23T21:04:19.656Z,17.77
2022-10-23T21:07:08.420Z,17.74
2022-10-23T21:09:32.812Z,17.69
2022-10-23T21:11:59.269Z,17.74
2022-10-23T21:14:25.806Z,17.75
2022-10-23T21:16:52.266Z,17.70
2022-10-23T21:19:18.756Z,17.71
2022-10-23T21:21:45.265Z,17.67
2022-10-23T21:24:15.661Z,17.64
2022-10-23T21:26:42.790Z,17.69
2022-10-23T21:29:18.954Z,17.67
2022-10-23T21:31:55.506Z,17.64
2022-10-23T21:34:22.873Z,17.66
2022-10-23T21:37:11.469Z,17.63
2022-10-23T21:39:35.785Z,17.69
2022-10-23T21:42:02.296Z,17.62
2022-10-23T21:44:28.802Z,17.66
2022-10-23T21:46:55.367Z,17.65
2022-10-23T21:49:21.877Z,17.68
2022-10-23T21:51:48.438Z,17.71
2022-10-23T21:54:15.128Z,17.67
2022-10-23T21:56:50.558Z,17.68
2022-10-23T21:59:20.173Z,17.74
2022-10-23T22:01:48.409Z,17.74
2022-10-23T22:04:17.407Z,17.76
2022-10-23T22:06:44.964Z,17.72
2022-10-23T22:09:17.439Z,17.73
2022-10-23T22:11:43.900Z,17.69
2022-10-23T22:14:10.531Z,17.72
2022-10-23T22:16:37.078Z,17.72
2022-10-23T22:19:03.644Z,17.73
2022-10-23T22:21:30.829Z,17.68
2022-10-23T22:23:59.402Z,17.71
2022-10-23T22:26:29.019Z,17.76
2022-10-23T22:28:58.777Z,17.76
2022-10-23T22:31:28.000Z,17.77
2022-10-23T22:33:55.642Z,17.87
2022-10-23T22:36:23.026Z,17.79
2022-10-23T22:38:49.826Z,17.74
2022-10-23T22:41:16.953Z,17.80
2022-10-23T22:43:43.672Z,17.77
2022-10-23T22:46:11.356Z,17.73
2022-10-23T22:48:38.571Z,17.74
2022-10-23T22:51:08.361Z,17.72
2022-10-23T22:53:35.825Z,17.71
2022-10-23T22:56:06.359Z,17.71
2022-10-23T22:58:32.918Z,17.70
2022-10-23T23:01:10.274Z,17.75
2022-10-23T23:03:37.612Z,17.69
2022-10-23T23:06:06.077Z,17.74
2022-10-23T23:08:33.606Z,17.75
2022-10-23T23:11:00.436Z,17.69
2022-10-23T23:13:27.607Z,17.67
2022-10-23T23:15:54.514Z,17.58
2022-10-23T23:18:21.048Z,17.63
2022-10-23T23:20:47.568Z,17.61
2022-10-23T23:23:14.495Z,17.59
2022-10-23T23:25:43.339Z,17.62
2022-10-23T23:28:12.005Z,17.56
2022-10-23T23:30:39.702Z,17.52
2022-10-23T23:33:06.190Z,17.50
2022-10-23T23:35:32.678Z,17.50
2022-10-23T23:37:59.181Z,17.54
2022-10-23T23:40:26.130Z,17.56
2022-10-23T23:42:52.588Z,17.59
2022-10-23T23:45:19.061Z,17.63
2022-10-23T23:47:45.727Z,17.61
2022-10-23T23:50:12.732Z,17.58
2022-10-23T23:52:39.246Z,17.58
2022-10-23T23:55:06.216Z,17.59
2022-10-23T23:57:32.731Z,17.57
2022-10-23T23:59:59.379Z,17.61
